createdAt,value
2023-01-28T00:03:07.161Z,32.88
2023-01-28T00:13:08.388Z,32.83
2023-01-28T00:23:09.792Z,33.08
2023-01-28T00:33:11.061Z,32.75
2023-01-28T00:43:12.334Z,33.03
2023-01-28T00:53:13.586Z,32.75
2023-01-28T01:03:14.833Z,32.67
2023-01-28T01:13:16.102Z,32.60
2023-01-28T01:23:17.378Z,32.18
2023-01-28T01:33:18.610Z,32.27
2023-01-28T01:43:19.855Z,31.83
2023-01-28T01:53:21.088Z,31.97
2023-01-28T02:03:22.519Z,32.30
2023-01-28T02:13:23.757Z,32.47
2023-01-28T02:23:24.991Z,31.88
2023-01-28T02:33:26.214Z,31.80
2023-01-28T02:43:27.582Z,31.77
2023-01-28T02:53:28.807Z,32.28
2023-01-28T03:03:30.067Z,31.66
2023-01-28T03:13:31.407Z,31.82
2023-01-28T03:23:32.695Z,31.41
2023-01-28T03:33:33.984Z,32.10
2023-01-28T03:43:35.211Z,31.70
2023-01-28T03:53:36.457Z,31.90
2023-01-28T04:03:37.712Z,31.70
2023-01-28T04:13:38.977Z,31.62
2023-01-28T04:23:40.219Z,31.49
2023-01-28T04:33:41.782Z,31.69
2023-01-28T04:43:43.487Z,31.59
2023-01-28T04:53:45.533Z,31.59
2023-01-28T05:03:46.813Z,31.87
2023-01-28T05:24:16.841Z,31.98
2023-01-28T05:34:18.101Z,31.52
2023-01-28T05:44:19.361Z,31.68
2023-01-28T05:54:20.571Z,32.08
2023-01-28T06:04:21.834Z,31.66
2023-01-28T06:14:23.111Z,31.51
2023-01-28T06:24:24.413Z,31.54
2023-01-28T06:34:25.643Z,31.35
2023-01-28T06:44:26.879Z,31.40
2023-01-28T06:54:28.318Z,31.50
2023-01-28T07:04:29.576Z,31.53
2023-01-28T07:14:30.834Z,30.30
2023-01-28T07:24:32.080Z,30.05
2023-01-28T07:34:33.324Z,30.10
2023-01-28T07:44:34.551Z,30.14
2023-01-28T07:54:35.817Z,29.91
2023-01-28T08:04:37.102Z,30.13
2023-01-28T08:14:38.538Z,30.26
2023-01-28T08:24:39.831Z,30.57
2023-01-28T08:34:41.126Z,30.84
2023-01-28T08:44:42.408Z,30.53
2023-01-28T08:54:43.652Z,30.78
2023-01-28T09:04:44.896Z,30.66
2023-01-28T09:14:46.178Z,31.46
2023-01-28T09:24:47.442Z,31.27
2023-01-28T09:34:48.695Z,31.44
2023-01-28T09:44:49.951Z,31.48
2023-01-28T09:54:51.193Z,31.57
2023-01-28T10:04:52.470Z,31.80
2023-01-28T10:14:53.717Z,31.53
2023-01-28T10:24:55.005Z,31.89
2023-01-28T10:34:56.285Z,31.51
2023-01-28T10:44:57.556Z,31.99
2023-01-28T10:54:58.981Z,31.68
2023-01-28T11:05:00.309Z,31.76
2023-01-28T11:15:01.721Z,31.94
2023-01-28T11:25:02.974Z,31.84
2023-01-28T11:35:04.284Z,31.83
2023-01-28T11:45:05.579Z,32.14
2023-01-28T11:55:06.841Z,31.87
2023-01-28T12:05:08.086Z,32.14
2023-01-28T12:15:09.333Z,32.42
2023-01-28T12:25:10.597Z,32.45
2023-01-28T12:35:11.852Z,32.84
2023-01-28T12:45:13.100Z,33.35
2023-01-28T12:55:14.347Z,33.22
2023-01-28T13:05:15.594Z,33.42
2023-01-28T13:15:17.024Z,33.29
2023-01-28T13:25:18.366Z,33.26
2023-01-28T13:35:19.629Z,33.00
2023-01-28T13:45:20.925Z,32.89
2023-01-28T13:55:41.336Z,32.61
2023-01-28T14:05:43.434Z,32.71
2023-01-28T14:15:44.690Z,32.60
2023-01-28T14:25:45.995Z,32.38
2023-01-28T14:35:47.231Z,32.47
2023-01-28T14:45:48.504Z,32.32
2023-01-28T14:55:49.736Z,32.17
2023-01-28T15:05:51.002Z,32.07
2023-01-28T15:15:52.252Z,31.58
2023-01-28T15:25:53.538Z,31.51
2023-01-28T15:35:54.762Z,31.53
2023-01-28T15:45:56.046Z,31.20
2023-01-28T15:55:57.306Z,30.73
2023-01-28T16:05:58.722Z,30.35
2023-01-28T16:16:00.086Z,30.39
2023-01-28T16:26:01.366Z,29.84
2023-01-28T16:36:08.413Z,29.62
2023-01-28T16:46:10.189Z,29.97
2023-01-28T16:56:30.098Z,29.26
2023-01-28T17:06:32.787Z,29.05
2023-01-28T17:16:34.320Z,29.55
2023-01-28T17:26:35.798Z,29.22
2023-01-28T17:36:37.140Z,29.26
2023-01-28T17:46:38.424Z,28.75
2023-01-28T17:56:56.125Z,28.36
2023-01-28T18:06:57.581Z,28.65
2023-01-28T18:16:58.821Z,29.03
2023-01-28T18:27:00.247Z,28.22
2023-01-28T18:37:01.545Z,28.65
2023-01-28T18:47:02.794Z,28.22
2023-01-28T18:57:04.059Z,28.82
2023-01-28T19:07:07.971Z,28.10
2023-01-28T19:17:09.550Z,28.19
2023-01-28T19:27:10.892Z,28.40
2023-01-28T19:37:12.165Z,29.05
2023-01-28T19:47:13.413Z,28.52
2023-01-28T19:57:14.691Z,28.21
2023-01-28T20:07:15.989Z,28.63
2023-01-28T20:17:17.266Z,28.65
2023-01-28T20:27:19.711Z,28.63
2023-01-28T20:37:20.959Z,29.10
2023-01-28T20:47:22.205Z,28.45
2023-01-28T20:57:23.402Z,28.59
2023-01-28T21:07:24.658Z,28.44
2023-01-28T21:17:26.141Z,28.70
2023-01-28T21:27:27.408Z,28.04
2023-01-28T21:37:28.672Z,28.02
2023-01-28T21:47:30.007Z,28.26
2023-01-28T21:57:31.288Z,28.85
2023-01-28T22:07:32.572Z,28.50
2023-01-28T22:17:33.974Z,28.24
2023-01-28T22:27:35.413Z,28.11
2023-01-28T22:37:36.663Z,28.25
2023-01-28T22:47:37.994Z,28.54
2023-01-28T22:57:39.247Z,28.35
2023-01-28T23:07:40.500Z,28.36
2023-01-28T23:17:41.788Z,28.35
2023-01-28T23:27:43.040Z,28.14
2023-01-28T23:37:44.356Z,28.15
2023-01-28T23:47:45.809Z,27.92
2023-01-28T23:57:47.099Z,27.87
